createdAt,value
2018-08-04T00:01:21.788Z,24.50
2018-08-04T00:03:50.985Z,24.50
2018-08-04T00:06:20.141Z,24.40
2018-08-04T00:08:49.187Z,24.20
2018-08-04T00:11:18.387Z,24.20
2018-08-04T00:13:47.311Z,24.20
2018-08-04T00:16:16.185Z,24.10
2018-08-04T00:18:45.406Z,24.00
2018-08-04T00:21:14.511Z,23.90
2018-08-04T00:23:43.957Z,24.00
2018-08-04T00:26:13.084Z,24.00
2018-08-04T00:28:42.207Z,24.00
2018-08-04T00:31:11.982Z,23.90
2018-08-04T00:33:41.318Z,23.90
2018-08-04T00:36:10.283Z,23.90
2018-08-04T00:38:40.100Z,23.80
2018-08-04T00:41:09.033Z,23.80
2018-08-04T00:43:38.753Z,23.90
2018-08-04T00:46:08.764Z,23.90
2018-08-04T00:48:38.052Z,24.00
2018-08-04T00:51:06.979Z,23.90
2018-08-04T00:53:36.665Z,24.00
2018-08-04T00:56:06.985Z,24.00
2018-08-04T00:58:36.503Z,23.90
2018-08-04T01:01:06.556Z,23.90
2018-08-04T01:03:36.341Z,23.90
2018-08-04T01:06:05.827Z,23.80
2018-08-04T01:08:34.958Z,23.90
2018-08-04T01:11:03.747Z,23.90
2018-08-04T01:13:32.514Z,23.90
2018-08-04T01:16:01.290Z,24.00
2018-08-04T01:18:30.766Z,23.90
2018-08-04T01:20:59.938Z,23.80
2018-08-04T01:23:29.085Z,23.80
2018-08-04T01:25:58.211Z,23.70
2018-08-04T01:28:27.374Z,23.70
2018-08-04T01:30:56.194Z,23.60
2018-08-04T01:33:25.297Z,23.70
2018-08-04T01:35:54.550Z,23.70
2018-08-04T01:38:24.099Z,23.70
2018-08-04T01:40:53.338Z,23.50
2018-08-04T01:43:22.214Z,23.60
2018-08-04T01:45:51.759Z,23.50
2018-08-04T01:48:20.659Z,23.50
2018-08-04T01:50:50.123Z,23.50
2018-08-04T01:53:19.407Z,23.50
2018-08-04T01:55:49.628Z,23.50
2018-08-04T01:58:18.717Z,23.50
2018-08-04T02:00:48.085Z,23.50
2018-08-04T02:03:17.384Z,23.40
2018-08-04T02:05:46.680Z,23.50
2018-08-04T02:08:15.618Z,23.60
2018-08-04T02:10:44.794Z,23.60
2018-08-04T02:13:14.291Z,23.50
2018-08-04T02:15:43.872Z,23.50
2018-08-04T02:18:14.240Z,23.50
2018-08-04T02:20:43.386Z,23.50
2018-08-04T02:23:13.842Z,23.50
2018-08-04T02:25:42.854Z,23.50
2018-08-04T02:28:12.032Z,23.50
2018-08-04T02:30:40.816Z,23.50
2018-08-04T02:33:09.916Z,23.50
2018-08-04T02:35:39.078Z,23.40
2018-08-04T02:38:08.286Z,23.40
2018-08-04T02:40:37.201Z,23.40
2018-08-04T02:43:06.540Z,23.50
2018-08-04T02:45:35.998Z,23.50
2018-08-04T02:48:05.137Z,23.50
2018-08-04T02:50:34.311Z,23.40
2018-08-04T02:53:03.366Z,23.40
2018-08-04T02:55:32.515Z,23.30
2018-08-04T02:58:01.684Z,23.30
2018-08-04T03:00:31.628Z,23.30
2018-08-04T03:03:00.839Z,23.30
2018-08-04T03:05:30.820Z,23.30
2018-08-04T03:08:00.132Z,23.30
2018-08-04T03:10:29.740Z,23.30
2018-08-04T03:12:58.684Z,23.30
2018-08-04T03:15:27.679Z,23.30
2018-08-04T03:17:56.564Z,23.40
2018-08-04T03:20:25.827Z,23.30
2018-08-04T03:22:54.684Z,23.40
2018-08-04T03:25:23.930Z,23.40
2018-08-04T03:27:52.718Z,23.30
2018-08-04T03:30:21.837Z,23.30
2018-08-04T03:32:51.024Z,23.30
2018-08-04T03:35:20.123Z,23.30
2018-08-04T03:37:49.245Z,23.40
2018-08-04T03:40:18.466Z,23.40
2018-08-04T03:42:47.952Z,23.40
2018-08-04T03:45:20.263Z,23.50
2018-08-04T03:47:49.028Z,23.40
2018-08-04T03:50:18.469Z,23.50
2018-08-04T03:52:47.855Z,23.50
2018-08-04T03:55:17.029Z,23.50
2018-08-04T03:57:46.538Z,23.60
2018-08-04T04:00:16.009Z,23.60
2018-08-04T04:02:44.932Z,23.60
2018-08-04T04:05:14.123Z,23.60
2018-08-04T04:07:43.461Z,23.50
2018-08-04T04:10:13.413Z,23.50
2018-08-04T04:12:42.931Z,23.50
2018-08-04T04:15:12.428Z,23.50
2018-08-04T04:17:48.448Z,23.70
2018-08-04T04:20:18.664Z,23.70
2018-08-04T04:22:49.002Z,23.70
2018-08-04T04:25:18.117Z,23.70
2018-08-04T04:27:47.425Z,23.90
2018-08-04T04:30:17.564Z,23.60
2018-08-04T04:32:46.562Z,23.70
2018-08-04T04:35:15.937Z,24.10
2018-08-04T04:37:45.361Z,24.70
2018-08-04T04:40:14.375Z,24.90
2018-08-04T04:42:45.789Z,25.50
2018-08-04T04:45:14.871Z,25.50
2018-08-04T04:47:44.174Z,25.60
2018-08-04T04:50:13.717Z,25.90
2018-08-04T04:52:43.950Z,26.10
2018-08-04T04:55:13.721Z,26.50
2018-08-04T04:57:43.874Z,26.50
2018-08-04T05:00:13.618Z,26.50
2018-08-04T05:02:42.679Z,26.50
2018-08-04T05:05:12.358Z,26.30
2018-08-04T05:07:42.155Z,26.90
2018-08-04T05:10:12.430Z,26.90
2018-08-04T05:12:41.797Z,27.10
2018-08-04T05:15:11.824Z,27.90
2018-08-04T05:17:41.524Z,28.30
2018-08-04T05:20:10.865Z,28.50
2018-08-04T05:22:40.513Z,28.80
2018-08-04T05:25:10.238Z,29.00
2018-08-04T05:27:39.578Z,29.00
2018-08-04T05:30:09.440Z,29.30
2018-08-04T05:32:38.787Z,29.40
2018-08-04T05:35:08.443Z,29.70
2018-08-04T05:37:38.457Z,30.70
2018-08-04T05:40:08.140Z,31.90
2018-08-04T05:42:37.512Z,32.10
2018-08-04T05:45:08.352Z,33.20
2018-08-04T05:47:38.374Z,34.20
2018-08-04T05:50:08.207Z,34.60
2018-08-04T05:52:37.392Z,34.60
2018-08-04T05:55:06.872Z,35.10
2018-08-04T05:57:36.610Z,35.30
2018-08-04T06:00:07.533Z,35.20
2018-08-04T06:02:37.764Z,35.90
2018-08-04T06:05:07.807Z,36.20
2018-08-04T06:07:37.915Z,35.90
2018-08-04T06:10:07.655Z,36.70
2018-08-04T06:12:37.363Z,35.20
2018-08-04T06:15:06.803Z,34.10
2018-08-04T06:17:36.476Z,32.20
2018-08-04T06:20:06.216Z,32.00
2018-08-04T06:22:36.075Z,32.10
2018-08-04T06:25:05.791Z,31.90
2018-08-04T06:27:35.811Z,30.90
2018-08-04T06:30:06.972Z,30.60
2018-08-04T06:32:36.800Z,30.40
2018-08-04T06:35:07.394Z,30.40
2018-08-04T06:37:37.228Z,30.00
2018-08-04T06:40:07.412Z,30.40
2018-08-04T06:42:37.536Z,30.60
2018-08-04T06:45:08.622Z,30.60
2018-08-04T06:47:38.732Z,30.50
2018-08-04T06:50:08.593Z,30.40
2018-08-04T06:52:38.378Z,30.10
2018-08-04T06:55:07.960Z,30.30
2018-08-04T06:57:37.440Z,30.40
2018-08-04T07:00:07.639Z,30.30
2018-08-04T07:02:37.064Z,29.80
2018-08-04T07:05:06.715Z,30.80
2018-08-04T07:07:36.185Z,31.40
2018-08-04T07:10:05.836Z,31.00
2018-08-04T07:15:05.880Z,32.10
2018-08-04T07:17:35.451Z,32.30
2018-08-04T07:20:05.137Z,32.50
2018-08-04T07:22:34.705Z,31.50
2018-08-04T07:25:04.451Z,30.50
2018-08-04T07:27:34.065Z,31.40
2018-08-04T07:30:03.796Z,31.50
2018-08-04T07:32:33.561Z,31.30
2018-08-04T07:35:02.931Z,31.70
2018-08-04T07:40:02.453Z,32.10
2018-08-04T07:42:32.424Z,32.30
2018-08-04T07:45:01.781Z,32.50
2018-08-04T07:47:31.533Z,32.60
2018-08-04T07:50:01.524Z,31.80
2018-08-04T07:52:31.704Z,31.90
2018-08-04T07:55:01.146Z,31.70
2018-08-04T07:57:30.883Z,32.20
2018-08-04T08:00:00.853Z,32.40
2018-08-04T08:02:30.519Z,32.60
2018-08-04T08:05:00.354Z,32.80
2018-08-04T08:07:30.575Z,32.90
2018-08-04T08:10:00.297Z,32.80
2018-08-04T08:12:29.661Z,32.80
2018-08-04T08:14:59.747Z,32.90
2018-08-04T08:17:29.146Z,32.70
2018-08-04T08:19:58.554Z,33.10
2018-08-04T08:22:38.198Z,33.30
2018-08-04T08:25:08.084Z,33.30
2018-08-04T08:27:38.031Z,33.50
2018-08-04T08:30:10.856Z,33.30
2018-08-04T08:32:40.420Z,33.30
2018-08-04T08:35:10.702Z,33.70
2018-08-04T08:37:40.771Z,34.90
2018-08-04T08:40:10.345Z,37.10
2018-08-04T08:42:39.478Z,41.20
2018-08-04T08:45:10.483Z,43.00
2018-08-04T08:47:39.562Z,43.40
2018-08-04T08:50:12.121Z,44.40
2018-08-04T08:52:41.830Z,44.90
2018-08-04T08:55:11.568Z,45.20
2018-08-04T08:57:40.755Z,46.40
2018-08-04T09:00:11.742Z,46.50
2018-08-04T09:02:41.721Z,47.10
2018-08-04T09:05:11.428Z,47.50
2018-08-04T09:07:40.688Z,45.90
2018-08-04T09:10:11.848Z,42.70
2018-08-04T09:12:41.908Z,40.40
2018-08-04T09:15:11.316Z,39.80
2018-08-04T09:17:40.720Z,39.10
2018-08-04T09:20:11.088Z,40.90
2018-08-04T09:22:40.653Z,44.70
2018-08-04T09:25:09.877Z,45.80
2018-08-04T09:27:39.384Z,46.80
2018-08-04T09:30:10.735Z,45.80
2018-08-04T09:32:40.260Z,46.90
2018-08-04T09:35:09.381Z,47.50
2018-08-04T09:37:38.466Z,47.10
2018-08-04T09:40:10.101Z,46.80
2018-08-04T09:42:39.244Z,47.40
2018-08-04T09:45:09.745Z,46.30
2018-08-04T09:47:39.912Z,42.40
2018-08-04T09:50:12.821Z,40.00
2018-08-04T09:52:42.850Z,38.30
2018-08-04T09:55:12.950Z,37.60
2018-08-04T09:57:42.713Z,37.00
2018-08-04T10:00:18.195Z,36.90
2018-08-04T10:02:47.676Z,36.40
2018-08-04T10:05:17.135Z,36.10
2018-08-04T10:07:47.046Z,35.50
2018-08-04T10:10:16.486Z,34.90
2018-08-04T10:12:45.894Z,34.70
2018-08-04T10:15:15.250Z,34.90
2018-08-04T10:17:44.654Z,35.00
2018-08-04T10:20:14.382Z,35.20
2018-08-04T10:22:43.907Z,35.00
2018-08-04T10:25:13.607Z,34.90
2018-08-04T10:27:43.146Z,34.80
2018-08-04T10:30:13.011Z,34.80
2018-08-04T10:32:43.096Z,34.00
2018-08-04T10:35:12.818Z,34.00
2018-08-04T10:37:42.825Z,34.40
2018-08-04T10:40:13.323Z,33.60
2018-08-04T10:42:43.556Z,33.90
2018-08-04T10:45:14.303Z,34.10
2018-08-04T10:50:13.873Z,34.30
2018-08-04T10:52:43.872Z,34.60
2018-08-04T10:55:14.234Z,34.40
2018-08-04T10:57:44.220Z,34.10
2018-08-04T11:00:14.540Z,33.90
2018-08-04T11:02:44.130Z,34.10
2018-08-04T11:05:13.720Z,34.20
2018-08-04T11:07:43.670Z,34.40
2018-08-04T11:10:13.369Z,34.40
2018-08-04T11:12:43.197Z,34.50
2018-08-04T11:15:12.990Z,34.30
2018-08-04T11:17:42.950Z,34.10
2018-08-04T11:22:42.653Z,33.80
2018-08-04T11:25:12.321Z,33.70
2018-08-04T11:27:42.039Z,33.50
2018-08-04T11:30:12.033Z,33.50
2018-08-04T11:32:41.354Z,33.60
2018-08-04T11:35:11.031Z,33.80
2018-08-04T11:37:41.087Z,33.70
2018-08-04T11:40:10.667Z,33.50
2018-08-04T11:42:40.865Z,33.30
2018-08-04T11:45:10.886Z,33.20
2018-08-04T11:47:40.664Z,33.40
2018-08-04T11:50:10.875Z,33.50
2018-08-04T11:52:40.927Z,33.50
2018-08-04T11:55:10.394Z,33.80
2018-08-04T11:57:39.764Z,33.90
2018-08-04T12:00:09.772Z,33.50
2018-08-04T12:02:39.384Z,33.40
2018-08-04T12:05:08.774Z,33.30
2018-08-04T12:10:07.952Z,33.30
2018-08-04T12:12:37.969Z,33.10
2018-08-04T12:15:07.370Z,33.20
2018-08-04T12:17:36.798Z,33.30
2018-08-04T12:20:06.952Z,33.50
2018-08-04T12:22:36.333Z,33.20
2018-08-04T12:25:06.467Z,33.10
2018-08-04T12:27:36.549Z,32.90
2018-08-04T12:30:07.268Z,33.00
2018-08-04T12:32:37.646Z,33.00
2018-08-04T12:35:08.070Z,33.00
2018-08-04T12:37:38.362Z,33.00
2018-08-04T12:40:08.244Z,33.10
2018-08-04T12:42:37.787Z,33.40
2018-08-04T12:45:07.689Z,33.60
2018-08-04T12:47:37.205Z,33.60
2018-08-04T12:50:06.725Z,33.50
2018-08-04T12:52:36.415Z,33.30
2018-08-04T12:57:35.493Z,33.30
2018-08-04T13:00:06.536Z,33.30
2018-08-04T13:02:36.173Z,33.10
2018-08-04T13:05:06.577Z,33.20
2018-08-04T13:07:36.312Z,33.40
2018-08-04T13:10:06.045Z,33.30
2018-08-04T13:12:35.932Z,33.30
2018-08-04T13:15:06.550Z,32.90
2018-08-04T13:17:36.101Z,32.50
2018-08-04T13:20:06.537Z,32.50
2018-08-04T13:22:36.469Z,32.60
2018-08-04T13:25:06.731Z,32.80
2018-08-04T13:27:36.556Z,32.80
2018-08-04T13:30:06.767Z,32.90
2018-08-04T13:32:36.650Z,32.90
2018-08-04T13:35:06.786Z,32.80
2018-08-04T13:37:36.301Z,32.60
2018-08-04T13:40:06.340Z,32.70
2018-08-04T13:42:35.816Z,32.70
2018-08-04T13:45:06.638Z,32.30
2018-08-04T13:47:36.112Z,32.50
2018-08-04T13:50:06.724Z,32.60
2018-08-04T13:52:37.439Z,32.60
2018-08-04T13:55:06.882Z,32.60
2018-08-04T13:57:36.789Z,32.80
2018-08-04T14:00:06.598Z,32.90
2018-08-04T14:02:36.524Z,32.80
2018-08-04T14:05:06.740Z,32.40
2018-08-04T14:07:38.013Z,32.70
2018-08-04T14:10:07.698Z,32.60
2018-08-04T14:12:37.391Z,32.60
2018-08-04T14:15:07.153Z,32.60
2018-08-04T14:17:36.857Z,32.40
2018-08-04T14:20:06.265Z,32.50
2018-08-04T14:22:35.999Z,32.50
2018-08-04T14:25:05.333Z,32.30
2018-08-04T14:27:35.403Z,32.40
2018-08-04T14:30:07.397Z,32.50
2018-08-04T14:32:36.819Z,32.60
2018-08-04T14:35:06.586Z,32.40
2018-08-04T14:37:36.413Z,32.50
2018-08-04T14:40:05.745Z,32.50
2018-08-04T14:42:35.437Z,32.00
2018-08-04T14:45:05.235Z,32.00
2018-08-04T14:47:34.557Z,32.40
2018-08-04T14:50:04.371Z,32.20
2018-08-04T14:52:34.501Z,32.10
2018-08-04T14:55:03.836Z,32.50
2018-08-04T14:57:33.387Z,32.50
2018-08-04T15:00:03.069Z,32.20
2018-08-04T15:02:32.613Z,32.20
2018-08-04T15:05:02.538Z,32.10
2018-08-04T15:07:32.765Z,32.30
2018-08-04T15:10:02.451Z,32.30
2018-08-04T15:12:31.843Z,32.30
2018-08-04T15:15:02.527Z,32.20
2018-08-04T15:17:31.928Z,31.90
2018-08-04T15:20:01.987Z,32.20
2018-08-04T15:22:33.265Z,32.30
2018-08-04T15:25:03.314Z,32.10
2018-08-04T15:27:33.361Z,32.10
2018-08-04T15:30:02.929Z,32.20
2018-08-04T15:32:32.352Z,32.10
2018-08-04T15:35:01.881Z,31.80
2018-08-04T15:37:31.426Z,31.80
2018-08-04T15:40:00.844Z,32.00
2018-08-04T15:42:30.281Z,31.80
2018-08-04T15:45:00.062Z,31.80
2018-08-04T15:47:30.221Z,31.80
2018-08-04T15:49:59.750Z,31.70
2018-08-04T15:52:29.207Z,31.90
2018-08-04T15:54:58.802Z,31.80
2018-08-04T15:57:28.432Z,31.80
2018-08-04T15:59:57.987Z,31.70
2018-08-04T16:02:27.764Z,31.70
2018-08-04T16:04:57.527Z,31.50
2018-08-04T16:07:27.219Z,31.50
2018-08-04T16:09:57.171Z,31.60
2018-08-04T16:12:26.503Z,31.70
2018-08-04T16:14:55.861Z,31.60
2018-08-04T16:17:25.601Z,31.70
2018-08-04T16:19:55.289Z,31.70
2018-08-04T16:22:25.331Z,31.60
2018-08-04T16:24:54.751Z,31.60
2018-08-04T16:27:24.659Z,31.60
2018-08-04T16:29:54.329Z,31.50
2018-08-04T16:32:23.672Z,31.50
2018-08-04T16:34:53.746Z,31.50
2018-08-04T16:37:23.775Z,31.40
2018-08-04T16:39:53.822Z,31.40
2018-08-04T16:42:23.150Z,31.30
2018-08-04T16:44:52.467Z,31.30
2018-08-04T16:47:22.052Z,31.20
2018-08-04T16:49:51.705Z,31.30
2018-08-04T16:52:21.460Z,31.20
2018-08-04T16:54:51.118Z,31.10
2018-08-04T16:57:20.529Z,31.10
2018-08-04T16:59:50.577Z,31.10
2018-08-04T17:02:20.295Z,31.10
2018-08-04T17:04:50.067Z,31.10
2018-08-04T17:07:20.208Z,31.10
2018-08-04T17:09:49.780Z,31.10
2018-08-04T17:12:19.779Z,31.10
2018-08-04T17:14:49.733Z,31.10
2018-08-04T17:17:19.667Z,31.10
2018-08-04T17:19:49.996Z,31.00
2018-08-04T17:22:19.466Z,30.90
2018-08-04T17:24:48.969Z,30.80
2018-08-04T17:27:18.562Z,30.80
2018-08-04T17:29:48.323Z,30.80
2018-08-04T17:32:18.123Z,30.70
2018-08-04T17:34:48.454Z,30.60
2018-08-04T17:37:17.992Z,30.50
2018-08-04T17:39:47.619Z,30.60
2018-08-04T17:42:17.522Z,30.50
2018-08-04T17:44:47.703Z,30.30
2018-08-04T17:47:17.880Z,30.30
2018-08-04T17:49:47.411Z,30.20
2018-08-04T17:52:16.964Z,30.20
2018-08-04T17:54:46.466Z,30.20
2018-08-04T17:57:16.342Z,30.10
2018-08-04T17:59:46.597Z,30.00
2018-08-04T18:02:16.439Z,30.00
2018-08-04T18:04:46.149Z,29.90
2018-08-04T18:07:16.400Z,29.90
2018-08-04T18:09:46.085Z,29.80
2018-08-04T18:12:15.903Z,29.70
2018-08-04T18:14:45.318Z,29.70
2018-08-04T18:17:15.347Z,29.60
2018-08-04T18:19:45.019Z,29.50
2018-08-04T18:22:14.376Z,29.50
2018-08-04T18:24:44.192Z,29.50
2018-08-04T18:27:13.846Z,29.40
2018-08-04T18:29:43.301Z,29.30
2018-08-04T18:32:12.805Z,29.30
2018-08-04T18:34:42.465Z,29.30
2018-08-04T18:37:11.861Z,29.20
2018-08-04T18:39:41.616Z,29.20
2018-08-04T18:44:41.068Z,29.10
2018-08-04T18:47:10.710Z,29.10
2018-08-04T18:49:40.404Z,29.00
2018-08-04T18:52:10.524Z,29.00
2018-08-04T18:54:39.906Z,28.90
2018-08-04T18:57:09.282Z,28.80
2018-08-04T18:59:38.711Z,28.70
2018-08-04T19:02:08.477Z,28.70
2018-08-04T19:04:37.929Z,28.70
2018-08-04T19:07:08.933Z,28.70
2018-08-04T19:09:38.663Z,28.60
2018-08-04T19:12:08.159Z,28.60
2018-08-04T19:14:37.920Z,28.60
2018-08-04T19:17:07.751Z,28.50
2018-08-04T19:19:37.751Z,28.40
2018-08-04T19:22:07.641Z,28.10
2018-08-04T19:24:37.439Z,28.10
2018-08-04T19:27:06.882Z,28.10
2018-08-04T19:29:36.393Z,28.00
2018-08-04T19:32:06.463Z,27.80
2018-08-04T19:34:36.165Z,27.80
2018-08-04T19:37:06.252Z,27.70
2018-08-04T19:39:35.955Z,27.40
2018-08-04T19:42:06.128Z,27.30
2018-08-04T19:44:36.102Z,27.10
2018-08-04T19:47:06.055Z,27.20
2018-08-04T19:49:36.422Z,26.80
2018-08-04T19:52:06.583Z,27.00
2018-08-04T19:54:37.184Z,27.10
2018-08-04T19:59:36.713Z,26.80
2018-08-04T20:02:06.682Z,27.00
2018-08-04T20:04:36.459Z,27.10
2018-08-04T20:07:06.858Z,27.00
2018-08-04T20:09:37.312Z,27.10
2018-08-04T20:12:07.636Z,27.20
2018-08-04T20:14:37.339Z,27.00
2018-08-04T20:17:06.773Z,27.10
2018-08-04T20:19:36.285Z,27.10
2018-08-04T20:22:11.318Z,27.00
2018-08-04T20:24:41.738Z,27.00
2018-08-04T20:27:11.549Z,26.70
2018-08-04T20:29:41.443Z,26.70
2018-08-04T20:34:40.607Z,26.80
2018-08-04T20:37:10.367Z,26.60
2018-08-04T20:39:39.142Z,26.60
2018-08-04T20:42:08.823Z,26.50
2018-08-04T20:44:38.202Z,26.70
2018-08-04T20:47:08.549Z,26.30
2018-08-04T20:49:37.974Z,26.20
2018-08-04T20:52:06.832Z,26.20
2018-08-04T20:54:36.540Z,26.50
2018-08-04T20:57:05.940Z,26.70
2018-08-04T20:59:35.639Z,26.50
2018-08-04T21:02:05.787Z,26.40
2018-08-04T21:04:36.296Z,26.50
2018-08-04T21:07:06.660Z,26.40
2018-08-04T21:09:36.371Z,26.30
2018-08-04T21:12:06.100Z,26.40
2018-08-04T21:14:35.815Z,26.00
2018-08-04T21:17:05.954Z,26.20
2018-08-04T21:19:35.601Z,26.30
2018-08-04T21:22:05.655Z,26.30
2018-08-04T21:24:35.348Z,26.30
2018-08-04T21:27:05.082Z,26.40
2018-08-04T21:32:03.394Z,26.40
2018-08-04T21:34:32.872Z,26.30
2018-08-04T21:37:02.776Z,26.20
2018-08-04T21:39:32.343Z,26.20
2018-08-04T21:42:02.159Z,25.90
2018-08-04T21:44:31.840Z,25.60
2018-08-04T21:47:01.476Z,25.80
2018-08-04T21:49:31.175Z,26.00
2018-08-04T21:52:00.861Z,26.00
2018-08-04T21:54:30.765Z,25.90
2018-08-04T21:57:01.372Z,25.90
2018-08-04T21:59:30.395Z,25.90
2018-08-04T22:02:00.321Z,25.90
2018-08-04T22:04:30.289Z,25.90
2018-08-04T22:07:35.431Z,25.90
2018-08-04T22:10:05.271Z,25.90
2018-08-04T22:12:35.715Z,25.80
2018-08-04T22:15:06.507Z,26.00
2018-08-04T22:17:36.772Z,26.00
2018-08-04T22:20:07.881Z,25.80
2018-08-04T22:22:38.206Z,25.80
2018-08-04T22:25:09.228Z,25.80
2018-08-04T22:27:38.878Z,25.80
2018-08-04T22:30:10.327Z,25.70
2018-08-04T22:32:40.104Z,25.80
2018-08-04T22:35:09.855Z,25.70
2018-08-04T22:37:40.329Z,25.60
2018-08-04T22:40:11.269Z,25.60
2018-08-04T22:42:40.487Z,25.60
2018-08-04T22:45:53.782Z,25.70
2018-08-04T22:48:23.084Z,25.60
2018-08-04T22:50:52.346Z,25.70
2018-08-04T22:53:21.161Z,25.70
2018-08-04T22:55:50.268Z,25.60
2018-08-04T22:58:19.124Z,25.60
2018-08-04T23:00:48.522Z,25.60
2018-08-04T23:03:18.090Z,25.70
2018-08-04T23:05:47.025Z,25.60
2018-08-04T23:08:16.578Z,25.50
2018-08-04T23:10:45.696Z,25.30
2018-08-04T23:13:16.020Z,25.50
2018-08-04T23:15:45.069Z,25.40
2018-08-04T23:18:14.469Z,25.50
2018-08-04T23:20:43.761Z,25.50
2018-08-04T23:23:13.623Z,25.50
2018-08-04T23:25:42.708Z,25.40
2018-08-04T23:28:11.685Z,25.30
2018-08-04T23:30:40.594Z,25.30
2018-08-04T23:33:09.777Z,25.40
2018-08-04T23:35:39.139Z,25.30
2018-08-04T23:38:07.995Z,25.40
2018-08-04T23:40:37.456Z,25.30
2018-08-04T23:43:06.600Z,25.30
2018-08-04T23:45:35.793Z,25.40
2018-08-04T23:48:04.931Z,25.30
2018-08-04T23:50:33.839Z,25.30
2018-08-04T23:53:02.636Z,25.10
2018-08-04T23:55:31.931Z,25.00
2018-08-04T23:58:01.049Z,24.90
